Página principal
METAR-TAF:

METAR-TAF

Aeroportos :

Fort Yukon, Alasca, Estados Unidos

latitude: 66-34N, longitude: 145-16W, altura: 433 m

Observação actual do tempo

O boletim foi feito há 59 minutos, às 18:56 UTC
Vento 5 kt com direcção variável
Temperatura 18°C
Humidade 56%
Pressão 1015 hPa
Visibilidade: 16.1 km
Céu limpo

METAR: PFYU 201856Z VRB05KT 10SM CLR 18/09 A2998 RMK AO2 SLP158 T01780089

Hora: 11:55 (19:55 UTC)


TAF: em falta

Observações e previsões do tempo de mais de 4000 aeroportos (mensagens METAR e TAF).

As estações disponíveis são os pontos amarelos e vermelhos sobre o mapa.

Mova o rato sobre o mapa para ver o nome da estação.

Depois clique no ponto para visualizar as observações e previsões meteorológicas.

Para alterar o mapa : clique nos botões verdes com uma cruz preta para aumentar o zoom; no botão verde com uma pitada de zoom; ou nas setas verdes para mapas adjacentes.


METAR-TAF: